»·PEaware :: SWA2233 KLAS-KBOI

SWA2233 :: KLAS-KBOI

FLIGHT INFORMATION

Flight Status: Arrived
Operator:
Southwest Airlines
More flights by this operator :: More flights under this callsign
Pilot: Daniel W. (24238)
Aircraft: BOEING 737-700
(B737)
More flights by this aircraft type
Origin: KLAS Harry Reid Intl
United States
Destination: KBOI Boise Air Terminal/Gowen
United States
More flights between these airports :: More routes between these airports
Route: RATPK3 FRNCK MLF ELY BROPH SPUUD4
File this flight plan on PilotEdge
Remarks: PBN / A1D1O1S2T1 NAV / RNVD1E1A1 RNP10 DAT / 1FANSE2PDC REG / N267WN EET / KZLC0021 CODE / A29AFF
Altitude:
(Current/Filed)
39,000ft
Speed:
(Current/Filed)
450kts
Departed: 02-Oct-22 01:32 PM
Arrived: 02-Oct-22 02:54 PM
Distance/Time
Traveled:
452nm/1:22
Distance/Time
To Go:
Arrived

Flight Plot

Page will automatically refresh every two minutes.

Flight plan parsing failed; only flown route is shown


Map Options




Map Legend


Flown Route
Filed Route
Departure Airport
Arrival Airport
Navaid (VOR, NDB)
Fix

Horizontal Profiles

Position Reports

Time Latitude Longitude Heading Altitude Ground
Speed
02-Oct-22 12:44 36.080494 -115.145644 271 2186ft 0kts
02-Oct-22 12:45 36.080494 -115.145644 271 2186ft 0kts
02-Oct-22 12:46 36.080494 -115.145644 271 2186ft 0kts
02-Oct-22 12:47 36.080494 -115.145644 271 2186ft 0kts
02-Oct-22 12:48 36.080494 -115.145644 271 2186ft 0kts
02-Oct-22 12:49 36.080494 -115.145644 271 2186ft 0kts
02-Oct-22 12:50 36.080494 -115.145644 271 2186ft 0kts
02-Oct-22 12:51 36.080494 -115.145644 271 2186ft 0kts
02-Oct-22 12:52 36.080494 -115.145644 271 2186ft 0kts
02-Oct-22 12:53 36.080494 -115.145644 271 2186ft 0kts
02-Oct-22 12:54 36.080494 -115.145644 271 2186ft 0kts
02-Oct-22 12:55 36.080494 -115.145644 271 2186ft 0kts
02-Oct-22 12:56 36.080494 -115.145644 271 2186ft 0kts
02-Oct-22 12:57 36.080494 -115.145644 271 2186ft 0kts
02-Oct-22 12:58 36.080494 -115.145644 271 2186ft 0kts
02-Oct-22 12:59 36.080494 -115.145644 271 2186ft 0kts
02-Oct-22 13:00 36.080494 -115.145644 271 2186ft 0kts
02-Oct-22 13:01 36.080494 -115.145644 271 2186ft 0kts
02-Oct-22 13:02 36.080494 -115.145644 271 2186ft 0kts
02-Oct-22 13:03 36.080494 -115.145644 271 2186ft 0kts
02-Oct-22 13:04 36.080494 -115.145644 271 2186ft 0kts
02-Oct-22 13:05 36.080494 -115.145644 271 2186ft 0kts
02-Oct-22 13:06 36.080494 -115.145644 271 2186ft 0kts
02-Oct-22 13:07 36.080494 -115.145644 271 2186ft 0kts
02-Oct-22 13:08 36.080494 -115.145644 271 2186ft 0kts
02-Oct-22 13:09 36.080494 -115.145644 271 2186ft 0kts
02-Oct-22 13:10 36.080494 -115.145644 271 2186ft 0kts
02-Oct-22 13:11 36.080494 -115.145644 271 2186ft 0kts
02-Oct-22 13:12 36.080494 -115.145644 271 2186ft 0kts
02-Oct-22 13:13 36.080494 -115.145644 271 2186ft 0kts
02-Oct-22 13:14 36.080494 -115.145644 271 2186ft 0kts
02-Oct-22 13:15 36.080494 -115.145644 271 2186ft 0kts
02-Oct-22 13:16 36.080494 -115.145644 271 2186ft 0kts
02-Oct-22 13:17 36.080494 -115.145644 271 2186ft 0kts
02-Oct-22 13:18 36.080494 -115.145644 271 2186ft 0kts
02-Oct-22 13:19 36.080494 -115.145644 271 2186ft 0kts
02-Oct-22 13:20 36.080494 -115.145644 271 2186ft 0kts
02-Oct-22 13:21 36.080494 -115.145644 271 2186ft 0kts
02-Oct-22 13:22 36.080494 -115.145606 270 2187ft 1kts
02-Oct-22 13:23 36.080753 -115.144864 188 2188ft 2kts
02-Oct-22 13:24 36.081033 -115.144849 180 2187ft 0kts
02-Oct-22 13:25 36.081033 -115.144849 179 2186ft 0kts
02-Oct-22 13:26 36.080198 -115.144657 137 2187ft 10kts
02-Oct-22 13:27 36.077817 -115.144460 155 2189ft 13kts
02-Oct-22 13:28 36.077543 -115.137773 90 2188ft 25kts
02-Oct-22 13:29 36.077557 -115.128308 90 2187ft 25kts
02-Oct-22 13:30 36.076889 -115.121250 182 2188ft 16kts
02-Oct-22 13:31 36.076399 -115.147225 265 2400ft 165kts
02-Oct-22 13:32 36.076423 -115.211890 267 4278ft 224kts
02-Oct-22 13:33 36.096896 -115.286758 334 6922ft 260kts
02-Oct-22 13:34 36.165966 -115.275810 57 10446ft 286kts
02-Oct-22 13:35 36.196740 -115.170001 87 12490ft 359kts
02-Oct-22 13:36 36.196247 -115.044268 90 15789ft 375kts
02-Oct-22 13:37 36.196305 -114.910862 87 18698ft 396kts
02-Oct-22 13:38 36.252750 -114.795074 47 21185ft 410kts
02-Oct-22 13:39 36.327654 -114.683362 48 23412ft 433kts
02-Oct-22 13:40 36.413964 -114.576572 33 25259ft 445kts
02-Oct-22 13:41 36.514919 -114.483240 34 27113ft 458kts
02-Oct-22 13:42 36.621508 -114.393821 28 28820ft 468kts
02-Oct-22 13:43 36.734664 -114.308025 28 30330ft 481kts
02-Oct-22 13:44 36.848615 -114.219421 28 31839ft 483kts
02-Oct-22 13:46 36.962447 -114.130460 28 33497ft 480kts
02-Oct-22 13:47 37.075612 -114.041775 28 34784ft 480kts
02-Oct-22 13:48 37.188553 -113.952939 28 35972ft 479kts
02-Oct-22 13:49 37.301156 -113.864053 28 37125ft 479kts
02-Oct-22 13:50 37.413864 -113.774764 29 38144ft 478kts
02-Oct-22 13:51 37.526665 -113.685071 29 38955ft 481kts
02-Oct-22 13:52 37.647584 -113.649832 330 39008ft 445kts
02-Oct-22 13:53 37.753849 -113.726737 325 39013ft 440kts
02-Oct-22 13:54 37.860418 -113.802920 326 39016ft 439kts
02-Oct-22 13:55 37.966899 -113.878668 326 39021ft 441kts
02-Oct-22 13:56 38.073453 -113.954724 326 39017ft 439kts
02-Oct-22 13:57 38.180141 -114.031157 326 39010ft 440kts
02-Oct-22 13:58 38.286797 -114.107829 326 38990ft 442kts
02-Oct-22 13:59 38.393414 -114.184708 326 38975ft 440kts
02-Oct-22 14:00 38.499851 -114.261736 326 38970ft 439kts
02-Oct-22 14:01 38.606255 -114.339002 326 38975ft 438kts
02-Oct-22 14:02 38.712080 -114.416128 326 38969ft 438kts
02-Oct-22 14:03 38.818043 -114.493612 326 38978ft 438kts
02-Oct-22 14:04 38.923891 -114.571281 326 38989ft 438kts
02-Oct-22 14:05 39.029597 -114.649118 326 39030ft 438kts
02-Oct-22 14:06 39.135298 -114.727223 326 39115ft 438kts
02-Oct-22 14:06 39.223439 -114.792555 326 39175ft 438kts
02-Oct-22 14:08 39.358125 -114.849510 355 39191ft 451kts
02-Oct-22 14:09 39.483984 -114.849663 356 39121ft 452kts
02-Oct-22 14:10 39.609388 -114.850458 356 39050ft 451kts
02-Oct-22 14:11 39.735386 -114.851457 356 39010ft 454kts
02-Oct-22 14:11 39.840495 -114.852280 356 39033ft 452kts
02-Oct-22 14:12 39.966612 -114.853284 356 39042ft 454kts
02-Oct-22 14:14 40.114380 -114.854448 356 39053ft 454kts
02-Oct-22 14:15 40.240587 -114.855454 356 39062ft 454kts
02-Oct-22 14:15 40.346031 -114.856301 357 39068ft 453kts
02-Oct-22 14:16 40.472048 -114.857302 357 39079ft 452kts
02-Oct-22 14:17 40.597851 -114.858312 357 39082ft 452kts
02-Oct-22 14:18 40.723795 -114.859328 357 39099ft 452kts
02-Oct-22 14:19 40.849393 -114.860350 357 39099ft 452kts
02-Oct-22 14:20 40.975189 -114.861371 357 39095ft 452kts
02-Oct-22 14:21 41.101219 -114.862400 357 39097ft 452kts
02-Oct-22 14:22 41.226973 -114.863433 357 39093ft 452kts
02-Oct-22 14:23 41.352739 -114.864471 357 39090ft 452kts
02-Oct-22 14:24 41.478336 -114.865509 357 39081ft 452kts
02-Oct-22 14:25 41.604170 -114.866552 357 39069ft 452kts
02-Oct-22 14:26 41.730156 -114.867605 357 39067ft 452kts
02-Oct-22 14:27 41.855739 -114.868650 357 39073ft 452kts
02-Oct-22 14:28 41.981731 -114.869709 357 39074ft 452kts
02-Oct-22 14:29 42.107541 -114.870768 357 39079ft 453kts
02-Oct-22 14:30 42.233697 -114.871837 358 39074ft 453kts
02-Oct-22 14:31 42.359824 -114.872908 358 39084ft 453kts
02-Oct-22 14:32 42.486082 -114.873982 358 37694ft 451kts
02-Oct-22 14:33 42.610938 -114.875056 358 34798ft 451kts
02-Oct-22 14:34 42.733163 -114.898599 328 31603ft 443kts
02-Oct-22 14:35 42.818515 -115.015151 314 29047ft 424kts
02-Oct-22 14:36 42.897554 -115.129143 315 26545ft 405kts
02-Oct-22 14:37 42.973561 -115.239241 314 24113ft 392kts
02-Oct-22 14:38 43.047182 -115.346388 313 21577ft 381kts
02-Oct-22 14:39 43.118396 -115.450404 313 19227ft 369kts
02-Oct-22 14:40 43.188235 -115.552636 313 16856ft 359kts
02-Oct-22 14:41 43.251189 -115.644937 313 15964ft 318kts
02-Oct-22 14:42 43.298735 -115.742988 295 14281ft 312kts
02-Oct-22 14:43 43.337674 -115.849010 297 12499ft 307kts
02-Oct-22 14:44 43.376525 -115.953428 297 10673ft 307kts
02-Oct-22 14:45 43.414047 -116.054670 297 9533ft 285kts
02-Oct-22 14:46 43.450393 -116.152981 297 8023ft 279kts
02-Oct-22 14:47 43.484014 -116.246354 295 6811ft 269kts
02-Oct-22 14:48 43.516872 -116.337960 296 5519ft 263kts
02-Oct-22 14:49 43.558070 -116.415870 344 4227ft 256kts
02-Oct-22 14:50 43.600062 -116.367473 82 4108ft 200kts
02-Oct-22 14:51 43.590590 -116.302660 115 3910ft 166kts
02-Oct-22 14:52 43.572996 -116.251279 115 3034ft 142kts
02-Oct-22 14:53 43.561585 -116.217606 94 2879ft 22kts
02-Oct-22 14:54 43.563806 -116.217156 355 2879ft 18kts
02-Oct-22 14:55 43.566600 -116.220610 30 2880ft 10kts
02-Oct-22 14:56 43.567091 -116.220200 30 2880ft 0kts
02-Oct-22 14:57 43.567091 -116.220200 30 2880ft 0kts
02-Oct-22 14:58 43.567091 -116.220200 30 2880ft 0kts
02-Oct-22 14:59 43.567091 -116.220200 30 2880ft 0kts
02-Oct-22 15:00 43.567091 -116.220200 30 2880ft 0kts
02-Oct-22 15:01 43.567091 -116.220200 30 2880ft 0kts
02-Oct-22 15:02 43.567091 -116.220200 30 2880ft 0kts
02-Oct-22 15:03 43.567091 -116.220200 30 2880ft 0kts
02-Oct-22 15:04 43.567091 -116.220200 30 2880ft 0kts
02-Oct-22 15:05 43.567091 -116.220200 30 2880ft 0kts
02-Oct-22 15:06 43.567091 -116.220200 30 2880ft 0kts
02-Oct-22 15:07 43.567091 -116.220200 30 2880ft 0kts

Navigation Log

Ident Type
Flight plan parsing failed, navigation log unavailable